x

Nantucket Sound (44020) Wave Buoy

2:50pm - Mon 22nd Sep 2014 All times are EDT. -4 hours from GMT.

  • Sig Wave height 2.6ft
  • Swell Direction
  • Peak Period 4s
  • Average Period 4s
  • Wind
    18mph, 22mph gusts
  • Sea Temp 68°f
  • Air Temp 69°f
  • Sea Pressure 1008.4mb
  • Nantucket Sound
  • Nantucket Sound

More Historic Weather Station data

Upgrade to MSW Pro to gain access to the past 30 days of data for over 8000 Wavebouys and Weather Stations around the globe.

Join Pro

Comparision Forecast

View Surf forecast
   
Mon 09/22 2:50pm 2.5ft 4s 4s 18 22 mph 1008.4mb 68f 69f
1:50pm 2.5ft 4s 4s 20 25 mph 1007.7mb 68f 67f
12:50pm 2ft 4s 4s 18 22 mph 1007.7mb 68f 68f
11:50am 2.5ft 4s 4s 20 25 mph 1007.2mb 68f 68f
10:50am 2ft 3s 4s 18 22 mph 1007.1mb 68f 67f
9:50am 2.5ft 3s 3s 16 20 mph 1006.8mb 68f 68f
8:50am 2ft 4s 3s 20 25 mph 1005.9mb 68f 68f
7:50am 2ft 3s 3s 16 18 mph 1005mb 67f 67f
6:50am 2ft 3s 3s 18 20 mph 1004.1mb 67f 68f
5:50am 2ft 3s 3s 20 25 mph 1002.8mb 67f 67f
4:50am 2ft 3s 3s 20 22 mph 1002.1mb 67f 67f
3:50am 1.3ft 3s 3s 16 18 mph 1001.5mb 67f 68f
2:50am 1.3ft 3s 3s 16 18 mph 1001.1mb 67f 67f
1:50am 1.3ft 3s 4s 13 16 mph 1000.7mb 68f 68f
12:50am 1ft 5s 4s 13
mph
1000.5mb 68f 68f
Sun 09/21 11:50pm 1.3ft 4s 4s 11 13 mph 1000.4mb 68f 68f
10:50pm 1ft 5s 4s 11 13 mph 1000.4mb 68f 67f
9:50pm 1ft 5s 4s 7
mph
1000.8mb 68f 67f
8:50pm 1ft 6s 4s 7
mph
1001.8mb 68f 66f
7:50pm 1ft 3s 3s 7 9 mph 1002.5mb 68f 66f
6:50pm 1ft 3s 3s 11 13 mph 1003.2mb 68f 67f
5:50pm 1ft 5s 3s 11 13 mph 1004.2mb 68f 68f
4:50pm 1ft 6s 4s 11
mph
1005.1mb 68f 67f
3:50pm 1ft 5s 4s 11 13 mph 1006.3mb 68f 67f
2:50pm 1ft 2s 3s 11
mph
1007.4mb 68f 67f
1:50pm 1ft 2s 3s 13 16 mph 1008.6mb 68f 67f
12:50pm 1.3ft 3s 3s 11 13 mph 1010.3mb 68f 69f
11:50am 1.6ft 3s 3s 13 16 mph 1011.6mb 68f 70f
10:50am 1.6ft 3s 3s 13 16 mph 1012.8mb 68f 70f
9:50am 1.3ft 3s 3s 11 13 mph 1013.9mb 68f 69f
8:50am 1ft 3s 3s 13 16 mph 1014.7mb 67f 69f
7:50am 1ft 3s 3s 9 11 mph 1014.8mb 67f 68f
6:50am 1ft 3s 3s 11 13 mph 1015.1mb 67f 68f
5:50am 1ft 3s 3s 13 16 mph 1015.4mb 67f 68f
4:50am 1ft 3s 3s 13 16 mph 1016mb 67f 67f
3:50am 0.7ft  -  3s 13 16 mph 1016.6mb 66f 67f
2:50am 0.7ft  -  4s 11 13 mph 1017.8mb 67f 65f
1:50am 0.7ft  -  3s 11 13 mph 1018.7mb 67f 64f
12:50am 1ft 2s 3s 11 13 mph 1019.4mb 67f 65f
Sat 09/20 11:50pm 1ft 2s 3s 11
mph
1020mb 67f 66f
10:50pm 1.3ft 2s 3s 11 13 mph 1020.5mb 67f 66f
9:50pm 1.3ft 5s 3s 16 18 mph 1021.1mb 67f 66f
8:50pm 1ft 3s 3s 13 16 mph 1021.6mb 67f 66f
7:50pm 1ft 3s 3s 11 13 mph 1021.8mb 67f 65f
6:50pm 1ft 3s 3s 13 16 mph 1022.2mb 67f 66f
5:50pm 1.3ft 3s 3s 13 16 mph 1022.5mb 67f 66f
4:50pm 1.3ft 3s 3s 16
mph
1022.8mb 67f 66f
3:50pm 1.3ft 3s 3s 16 18 mph 1023.1mb 67f 65f
2:50pm 1.3ft 3s 3s 13 16 mph 1024.1mb 67f 65f
1:50pm 1.3ft 3s 3s 13 16 mph 1025mb 67f 64f
12:50pm 1.3ft 3s 3s 13 16 mph 1025.7mb 67f 63f
11:50am 1.3ft 6s 3s 16 18 mph 1026.1mb 67f 61f
10:50am 1.6ft 6s 4s 11 13 mph 1027.1mb 67f 60f
9:50am 1.3ft 6s 4s 11 16 mph 1027.8mb 66f 59f
8:50am 1ft 5s 4s 11 13 mph 1028mb 66f 58f
7:50am 1ft 4s 3s 9 13 mph 1028.4mb 66f 58f
6:50am 0.7ft  -  3s 11 16 mph 1028.6mb 66f 58f
5:50am 1ft 4s 3s 11 16 mph 1028.6mb 65f 57f
4:50am 1ft 4s 3s 9 11 mph 1028.9mb 65f 57f
3:50am 1.3ft 4s 4s 11 13 mph 1028.9mb 64f 56f
2:50am 1.3ft 7s 3s 13 18 mph 1028.9mb 64f 56f
1:50am 1.3ft 6s 3s 13 20 mph 1028.8mb 65f 55f
12:50am 1.3ft 6s 3s 13 18 mph 1029.3mb 65f 55f
Fri 09/19 11:50pm 1.3ft 6s 4s 11 16 mph 1030mb 66f 55f
10:50pm 1.6ft 6s 4s 13 18 mph 1030.1mb 67f 55f
9:50pm 1.6ft 6s 4s 11 18 mph 1030.1mb 67f 55f
8:50pm 1.6ft 4s 4s 11 16 mph 1030.4mb 67f 55f
7:50pm 1.6ft 3s 4s 11 13 mph 1029.7mb 67f 55f
6:50pm 1.6ft 3s 3s 13 18 mph 1028.9mb 67f 55f
5:50pm 2ft 3s 4s 13 18 mph 1028.8mb 67f 55f
4:50pm 2ft 4s 4s 16 20 mph 1028.3mb 66f 55f
3:50pm 2ft 3s 4s 16 20 mph 1028.7mb 66f 55f
2:50pm 2.5ft 3s 3s 18 20 mph 1028.4mb 66f 55f
1:50pm 2ft 3s 3s 16 20 mph 1028mb 66f 56f
12:50pm 2ft 3s 3s 18 20 mph 1027.6mb 67f 56f
11:50am 2.5ft 4s 3s 18 22 mph 1027.3mb 67f 55f
10:50am 2.5ft 4s 4s 18 20 mph 1027.1mb 67f 56f
9:50am 2.5ft 4s 4s 18 25 mph 1026.6mb 67f 55f
8:50am 2.5ft 4s 4s 20 27 mph 1025.7mb 67f 55f
7:50am 2.5ft 4s 4s 22 29 mph 1024.7mb 67f 56f
6:50am 3ft 4s 4s 22 27 mph 1023.8mb 67f 56f
5:50am 3ft 4s 4s 25 29 mph 1022.4mb 67f 57f
4:50am 2.5ft 4s 4s 25 27 mph 1021.4mb 67f 59f
3:50am 3ft 4s 4s 22 27 mph 1020.6mb 67f 60f
2:50am 3ft 4s 4s 22 25 mph 1020.2mb 67f 61f
1:50am 2.5ft 4s 4s 25 29 mph 1019.3mb 67f 61f
12:50am 1.6ft 3s 3s 22 27 mph 1018.6mb 68f 64f
Thu 09/18 11:50pm 0.7ft  -  5s 18 22 mph 1018mb 68f 66f
10:50pm 0.7ft  -  5s 2 4 mph 1017.9mb 68f 65f
9:50pm 1ft 5s 4s  -  2 mph 1017.2mb 68f 65f
8:50pm 1ft 11s 4s  -  2 mph 1016.9mb 69f 65f